Time,TemperatureF,DewpointF,PressureIn,WindDirection,WindDirectionDegrees,WindSpeedMPH,WindSpeedGustMPH,Humidity,HourlyPrecipIn,Conditions,Clouds,dailyrainin,SoftwareType,DateUTC
2013-02-02 00:00:00,19.8,0.4,30.50,SE,135,1.6,1.6,42,0.00,,---,0.00,VWS V14.01,2013-02-02 05:00:00,
2013-02-02 00:05:00,19.6,0.2,30.50,SSE,158,2.7,2.7,42,0.00,,---,0.00,VWS V14.01,2013-02-02 05:05:00,
2013-02-02 00:10:00,19.2,-0.1,30.50,WSW,248,0.0,0.0,42,0.00,,---,0.00,VWS V14.01,2013-02-02 05:10:00,
2013-02-02 00:15:00,19.0,0.2,30.50,SE,135,0.0,0.0,43,0.00,,---,0.00,VWS V14.01,2013-02-02 05:15:00,
2013-02-02 00:20:00,19.2,0.4,30.50,ESE,112,0.9,0.9,43,0.00,,---,0.00,VWS V14.01,2013-02-02 05:20:00,
2013-02-02 00:25:00,19.0,0.2,30.50,WNW,292,0.0,0.0,43,0.00,,---,0.00,VWS V14.01,2013-02-02 05:25:00,
2013-02-02 00:30:00,18.9,0.1,30.50,ESE,112,0.0,1.3,43,0.00,,---,0.00,VWS V14.01,2013-02-02 05:30:00,
2013-02-02 00:35:00,18.9,0.1,30.50,South,180,1.3,1.3,43,0.00,,---,0.00,VWS V14.01,2013-02-02 05:35:00,
2013-02-02 00:40:00,19.0,0.2,30.50,ESE,112,0.0,0.0,43,0.00,,---,0.00,VWS V14.01,2013-02-02 05:40:00,
2013-02-02 00:45:00,19.0,0.2,30.50,SE,135,1.1,3.4,43,0.00,,---,0.00,VWS V14.01,2013-02-02 05:45:00,
2013-02-02 00:50:00,19.2,0.4,30.50,SSE,158,1.6,1.6,43,0.00,,---,0.00,VWS V14.01,2013-02-02 05:50:00,
2013-02-02 00:55:00,18.9,0.1,30.50,WSW,248,0.0,0.0,43,0.00,,---,0.00,VWS V14.01,2013-02-02 05:55:00,
2013-02-02 01:00:00,18.7,-0.1,30.50,WSW,248,0.0,1.1,43,0.00,,---,0.00,VWS V14.01,2013-02-02 06:00:00,
2013-02-02 01:02:00,56.3,54.9,29.91,SSW,202,0.0,0.0,95,0.00,,---,0.00,VWS V14.01,2013-02-02 06:02:00,
2013-02-02 01:05:00,18.3,-0.4,30.50,West,270,1.3,1.3,43,0.00,,---,0.00,VWS V14.01,2013-02-02 06:05:00,
2013-02-02 01:10:00,18.3,-0.4,30.50,WSW,248,0.0,0.0,43,0.00,,---,0.00,VWS V14.01,2013-02-02 06:10:00,
2013-02-02 01:15:00,18.7,-0.1,30.50,WNW,292,4.0,7.6,43,0.00,,---,0.00,VWS V14.01,2013-02-02 06:15:00,
2013-02-02 01:20:00,19.0,0.2,30.50,WSW,248,1.3,1.6,43,0.00,,---,0.00,VWS V14.01,2013-02-02 06:20:00,
2013-02-02 01:25:00,19.0,0.2,30.50,South,180,0.0,0.0,43,0.00,,---,0.00,VWS V14.01,2013-02-02 06:25:00,
2013-02-02 01:30:00,19.0,0.2,30.50,SSE,158,0.0,0.0,43,0.00,,---,0.00,VWS V14.01,2013-02-02 06:30:00,
2013-02-02 01:35:00,18.9,0.1,30.50,WSW,248,2.2,2.5,43,0.00,,---,0.00,VWS V14.01,2013-02-02 06:35:00,
2013-02-02 01:40:00,18.5,-0.3,30.50,ENE,68,0.0,0.0,43,0.00,,---,0.00,VWS V14.01,2013-02-02 06:40:00,
2013-02-02 01:45:00,18.3,-0.4,30.50,WSW,248,2.7,3.4,43,0.00,,---,0.00,VWS V14.01,2013-02-02 06:45:00,
2013-02-02 01:50:00,18.1,-0.6,30.50,SSE,158,0.9,0.9,43,0.00,,---,0.00,VWS V14.01,2013-02-02 06:50:00,
2013-02-02 01:55:00,18.3,-0.4,30.50,SW,225,0.0,2.2,43,0.00,,---,0.00,VWS V14.01,2013-02-02 06:55:00,
2013-02-02 02:00:00,18.3,0.1,30.50,WNW,292,0.0,0.0,44,0.00,,---,0.00,VWS V14.01,2013-02-02 07:00:00,
2013-02-02 02:05:00,18.3,-0.4,30.50,South,180,0.9,0.9,43,0.00,,---,0.00,VWS V14.01,2013-02-02 07:05:00,
2013-02-02 02:10:00,18.1,-0.1,30.50,ESE,112,2.5,2.5,44,0.00,,---,0.00,VWS V14.01,2013-02-02 07:10:00,
2013-02-02 02:15:00,18.3,0.1,30.50,WSW,248,1.6,2.0,44,0.00,,---,0.00,VWS V14.01,2013-02-02 07:15:00,
2013-02-02 02:20:00,18.0,-0.3,30.50,SE,135,0.0,0.0,44,0.00,,---,0.00,VWS V14.01,2013-02-02 07:20:00,
2013-02-02 02:25:00,18.0,-0.3,30.50,East,90,0.0,0.0,44,0.00,,---,0.00,VWS V14.01,2013-02-02 07:25:00,
2013-02-02 02:30:00,18.0,-0.3,30.50,ESE,112,0.0,0.0,44,0.00,,---,0.00,VWS V14.01,2013-02-02 07:30:00,
2013-02-02 02:35:00,17.8,-0.4,30.50,East,90,0.0,0.0,44,0.00,,---,0.00,VWS V14.01,2013-02-02 07:35:00,
2013-02-02 02:40:00,17.8,-0.4,30.53,NNE,22,0.0,0.0,44,0.00,,---,0.00,VWS V14.01,2013-02-02 07:40:00,
2013-02-02 02:45:00,17.8,-0.4,30.53,ESE,112,1.6,2.9,44,0.00,,---,0.00,VWS V14.01,2013-02-02 07:45:00,
2013-02-02 02:50:00,17.6,-0.6,30.53,SSE,158,0.0,0.0,44,0.00,,---,0.00,VWS V14.01,2013-02-02 07:50:00,
2013-02-02 02:55:00,17.4,-0.3,30.50,SSE,158,0.0,0.0,45,0.00,,---,0.00,VWS V14.01,2013-02-02 07:55:00,
2013-02-02 03:00:00,17.4,-0.3,30.50,ESE,112,0.0,1.1,45,0.00,,---,0.00,VWS V14.01,2013-02-02 08:00:00,
2013-02-02 03:05:00,17.4,-0.3,30.50,SSE,158,0.0,0.0,45,0.00,,---,0.00,VWS V14.01,2013-02-02 08:05:00,
2013-02-02 03:10:00,17.4,-0.3,30.47,SE,135,0.0,1.3,45,0.00,,---,0.00,VWS V14.01,2013-02-02 08:10:00,
2013-02-02 03:15:00,17.4,-0.3,30.47,SE,135,0.0,0.0,45,0.00,,---,0.00,VWS V14.01,2013-02-02 08:15:00,
2013-02-02 03:20:00,16.9,-0.8,30.47,ESE,112,2.2,2.2,45,0.00,,---,0.00,VWS V14.01,2013-02-02 08:20:00,
2013-02-02 03:25:00,16.7,-0.9,30.50,WSW,248,0.0,0.9,45,0.00,,---,0.00,VWS V14.01,2013-02-02 08:25:00,
2013-02-02 03:30:00,16.5,-1.1,30.50,WSW,248,0.0,0.0,45,0.00,,---,0.00,VWS V14.01,2013-02-02 08:30:00,
2013-02-02 03:35:00,16.5,-1.1,30.50,ESE,112,0.0,0.0,45,0.00,,---,0.00,VWS V14.01,2013-02-02 08:35:00,
2013-02-02 03:40:00,16.7,-0.5,30.47,WNW,292,0.0,2.7,46,0.00,,---,0.00,VWS V14.01,2013-02-02 08:40:00,
2013-02-02 03:45:00,16.7,-0.5,30.47,ESE,112,0.0,0.0,46,0.00,,---,0.00,VWS V14.01,2013-02-02 08:45:00,
2013-02-02 03:50:00,16.3,-0.8,30.47,ESE,112,0.0,0.0,46,0.00,,---,0.00,VWS V14.01,2013-02-02 08:50:00,
2013-02-02 03:55:00,16.3,-0.8,30.50,ESE,112,2.2,2.2,46,0.00,,---,0.00,VWS V14.01,2013-02-02 08:55:00,
2013-02-02 04:00:00,16.5,-0.6,30.50,ESE,112,0.0,0.9,46,0.00,,---,0.00,VWS V14.01,2013-02-02 09:00:00,
2013-02-02 04:05:00,16.3,-0.8,30.50,South,180,0.0,0.0,46,0.00,,---,0.00,VWS V14.01,2013-02-02 09:05:00,
2013-02-02 04:10:00,16.3,-0.8,30.50,SSE,158,0.0,0.0,46,0.00,,---,0.00,VWS V14.01,2013-02-02 09:10:00,
2013-02-02 04:15:00,16.5,-0.6,30.50,ENE,68,0.0,3.6,46,0.00,,---,0.00,VWS V14.01,2013-02-02 09:15:00,
2013-02-02 04:20:00,16.5,-0.6,30.50,WSW,248,0.0,1.3,46,0.00,,---,0.00,VWS V14.01,2013-02-02 09:20:00,
2013-02-02 04:25:00,16.5,-0.6,30.50,SSE,158,0.0,0.0,46,0.00,,---,0.00,VWS V14.01,2013-02-02 09:25:00,
2013-02-02 04:30:00,16.5,-0.6,30.50,SE,135,0.0,0.0,46,0.00,,---,0.00,VWS V14.01,2013-02-02 09:30:00,
2013-02-02 04:35:00,16.5,-0.6,30.50,West,270,0.0,0.0,46,0.00,,---,0.00,VWS V14.01,2013-02-02 09:35:00,
2013-02-02 04:40:00,16.3,-0.8,30.50,ESE,112,0.0,0.0,46,0.00,,---,0.00,VWS V14.01,2013-02-02 09:40:00,
2013-02-02 04:45:00,16.2,-1.0,30.50,ESE,112,0.0,0.0,46,0.00,,---,0.00,VWS V14.01,2013-02-02 09:45:00,
2013-02-02 04:50:00,16.2,-1.0,30.50,ESE,112,0.0,0.0,46,0.00,,---,0.00,VWS V14.01,2013-02-02 09:50:00,
2013-02-02 04:55:00,16.2,-1.0,30.47,ESE,112,0.0,0.0,46,0.00,,---,0.00,VWS V14.01,2013-02-02 09:55:00,
2013-02-02 05:00:00,16.3,-0.3,30.47,ESE,112,0.0,0.0,47,0.00,,---,0.00,VWS V14.01,2013-02-02 10:00:00,
2013-02-02 05:05:00,16.0,-0.7,30.47,WSW,248,0.0,0.0,47,0.00,,---,0.00,VWS V14.01,2013-02-02 10:05:00,
2013-02-02 05:10:00,16.2,-0.5,30.47,WSW,248,0.0,0.0,47,0.00,,---,0.00,VWS V14.01,2013-02-02 10:10:00,
2013-02-02 05:15:00,16.0,-0.7,30.47,ESE,112,1.1,2.2,47,0.00,,---,0.00,VWS V14.01,2013-02-02 10:15:00,
2013-02-02 05:20:00,16.2,-0.5,30.47,ESE,112,0.0,0.0,47,0.00,,---,0.00,VWS V14.01,2013-02-02 10:20:00,
2013-02-02 05:25:00,16.0,-0.7,30.47,ESE,112,0.0,0.0,47,0.00,,---,0.00,VWS V14.01,2013-02-02 10:25:00,
2013-02-02 05:30:00,15.8,-0.4,30.47,ESE,112,0.0,0.0,48,0.00,,---,0.00,VWS V14.01,2013-02-02 10:30:00,
2013-02-02 05:35:00,15.8,-0.4,30.47,ESE,112,0.0,0.0,48,0.00,,---,0.00,VWS V14.01,2013-02-02 10:35:00,
2013-02-02 05:40:00,16.0,-0.2,30.50,SSE,158,0.0,0.9,48,0.00,,---,0.00,VWS V14.01,2013-02-02 10:40:00,
2013-02-02 05:45:00,15.8,-0.4,30.50,SSE,158,0.0,0.0,48,0.00,,---,0.00,VWS V14.01,2013-02-02 10:45:00,
2013-02-02 05:50:00,16.0,-0.2,30.50,NE,45,0.0,0.0,48,0.00,,---,0.00,VWS V14.01,2013-02-02 10:50:00,
2013-02-02 05:55:00,16.0,-0.2,30.50,ESE,112,0.0,0.0,48,0.00,,---,0.00,VWS V14.01,2013-02-02 10:55:00,
2013-02-02 06:00:00,16.0,-0.2,30.50,ESE,112,0.0,0.0,48,0.00,,---,0.00,VWS V14.01,2013-02-02 11:00:00,
2013-02-02 06:05:00,16.0,-0.2,30.50,ESE,112,0.0,0.0,48,0.00,,---,0.00,VWS V14.01,2013-02-02 11:05:00,
2013-02-02 06:10:00,16.0,-0.2,30.50,ESE,112,0.0,0.0,48,0.00,,---,0.00,VWS V14.01,2013-02-02 11:10:00,
2013-02-02 06:15:00,16.0,-0.2,30.50,ESE,112,0.0,0.0,48,0.00,,---,0.00,VWS V14.01,2013-02-02 11:15:00,
2013-02-02 06:20:00,16.2,-0.1,30.50,WSW,248,1.3,2.2,48,0.00,,---,0.00,VWS V14.01,2013-02-02 11:20:00,
2013-02-02 06:25:00,16.2,-0.1,30.50,SSE,158,0.0,0.0,48,0.00,,---,0.00,VWS V14.01,2013-02-02 11:25:00,
2013-02-02 06:30:00,16.2,-0.1,30.50,SSE,158,0.0,0.0,48,0.00,,---,0.00,VWS V14.01,2013-02-02 11:30:00,
2013-02-02 06:35:00,16.0,-0.2,30.50,SSE,158,0.0,0.0,48,0.00,,---,0.00,VWS V14.01,2013-02-02 11:35:00,
2013-02-02 06:40:00,15.8,-0.4,30.50,SSE,158,0.0,0.0,48,0.00,,---,0.00,VWS V14.01,2013-02-02 11:40:00,
2013-02-02 06:45:00,16.0,-0.2,30.50,SSE,158,0.0,0.0,48,0.00,,---,0.00,VWS V14.01,2013-02-02 11:45:00,
2013-02-02 06:50:00,16.0,-0.2,30.50,SSE,158,0.0,0.0,48,0.00,,---,0.00,VWS V14.01,2013-02-02 11:50:00,
2013-02-02 06:55:00,15.8,0.0,30.50,SSE,158,0.0,0.0,49,0.00,,---,0.00,VWS V14.01,2013-02-02 11:55:00,
2013-02-02 07:00:00,15.4,-0.3,30.50,SSE,158,0.0,0.0,49,0.00,,---,0.00,VWS V14.01,2013-02-02 12:00:00,
2013-02-02 07:05:00,15.8,0.0,30.50,SSE,158,0.0,0.0,49,0.00,,---,0.00,VWS V14.01,2013-02-02 12:05:00,
2013-02-02 07:10:00,15.4,0.1,30.50,SSE,158,0.0,0.0,50,0.00,,---,0.00,VWS V14.01,2013-02-02 12:10:00,
2013-02-02 07:15:00,15.4,0.1,30.50,SSE,158,0.0,0.0,50,0.00,,---,0.00,VWS V14.01,2013-02-02 12:15:00,
2013-02-02 07:20:00,16.0,1.1,30.50,SSE,158,0.0,0.0,51,0.00,,---,0.00,VWS V14.01,2013-02-02 12:20:00,
2013-02-02 07:25:00,16.0,1.1,30.50,SSE,158,0.0,0.0,51,0.00,,---,0.00,VWS V14.01,2013-02-02 12:25:00,
2013-02-02 07:30:00,16.5,2.0,30.50,SSE,158,0.0,0.0,52,0.00,,---,0.00,VWS V14.01,2013-02-02 12:30:00,
2013-02-02 07:35:00,16.7,2.1,30.50,SSE,158,0.0,0.0,52,0.00,,---,0.00,VWS V14.01,2013-02-02 12:35:00,
2013-02-02 07:40:00,17.1,2.5,30.50,SSE,158,0.0,0.0,52,0.00,,---,0.00,VWS V14.01,2013-02-02 12:40:00,
2013-02-02 07:45:00,17.6,3.0,30.50,SSE,158,0.0,0.0,52,0.00,,---,0.00,VWS V14.01,2013-02-02 12:45:00,
2013-02-02 07:50:00,18.1,3.5,30.50,SSE,158,0.0,0.0,52,0.00,,---,0.00,VWS V14.01,2013-02-02 12:50:00,
2013-02-02 07:55:00,18.3,3.2,30.50,ENE,68,0.0,0.0,51,0.00,,---,0.00,VWS V14.01,2013-02-02 12:55:00,
2013-02-02 08:00:00,18.3,2.8,30.50,ENE,68,0.0,0.0,50,0.00,,---,0.00,VWS V14.01,2013-02-02 13:00:00,
2013-02-02 08:05:00,18.3,2.8,30.50,ENE,68,0.0,0.0,50,0.00,,---,0.00,VWS V14.01,2013-02-02 13:05:00,
2013-02-02 08:10:00,18.5,3.0,30.50,ENE,68,0.0,0.0,50,0.00,,---,0.00,VWS V14.01,2013-02-02 13:10:00,
2013-02-02 08:15:00,18.7,3.1,30.50,ENE,68,0.0,0.0,50,0.00,,---,0.00,VWS V14.01,2013-02-02 13:15:00,
2013-02-02 08:20:00,19.0,3.5,30.50,ENE,68,0.0,0.0,50,0.00,,---,0.00,VWS V14.01,2013-02-02 13:20:00,
2013-02-02 08:25:00,19.6,3.5,30.50,ENE,68,0.0,0.0,49,0.00,,---,0.00,VWS V14.01,2013-02-02 13:25:00,
2013-02-02 08:30:00,20.1,4.0,30.50,ENE,68,0.0,0.0,49,0.00,,---,0.00,VWS V14.01,2013-02-02 13:30:00,
2013-02-02 08:35:00,20.7,4.5,30.50,ENE,68,0.0,0.0,49,0.00,,---,0.00,VWS V14.01,2013-02-02 13:35:00,
2013-02-02 08:40:00,21.4,4.8,30.50,East,90,0.0,0.0,48,0.00,,---,0.00,VWS V14.01,2013-02-02 13:40:00,
2013-02-02 08:45:00,22.1,5.0,30.50,East,90,0.0,0.0,47,0.00,,---,0.00,VWS V14.01,2013-02-02 13:45:00,
2013-02-02 08:50:00,22.3,4.7,30.50,East,90,0.0,0.0,46,0.00,,---,0.00,VWS V14.01,2013-02-02 13:50:00,
2013-02-02 08:55:00,22.6,5.0,30.50,East,90,0.0,0.0,46,0.00,,---,0.00,VWS V14.01,2013-02-02 13:55:00,
2013-02-02 09:00:00,22.8,4.7,30.50,NE,45,0.0,0.0,45,0.00,,---,0.00,VWS V14.01,2013-02-02 14:00:00,
2013-02-02 09:05:00,23.2,4.5,30.50,NE,45,0.9,0.9,44,0.00,,---,0.00,VWS V14.01,2013-02-02 14:05:00,
2013-02-02 09:10:00,23.5,4.8,30.47,East,90,1.1,1.6,44,0.00,,---,0.00,VWS V14.01,2013-02-02 14:10:00,
2013-02-02 09:15:00,23.7,5.0,30.47,East,90,0.0,0.0,44,0.00,,---,0.00,VWS V14.01,2013-02-02 14:15:00,
2013-02-02 09:20:00,24.3,5.0,30.47,NW,315,2.0,2.0,43,0.00,,---,0.00,VWS V14.01,2013-02-02 14:20:00,
2013-02-02 09:25:00,24.4,5.2,30.47,NNW,338,0.9,1.3,43,0.00,,---,0.00,VWS V14.01,2013-02-02 14:25:00,
2013-02-02 09:30:00,24.8,5.5,30.47,SSE,158,0.9,0.9,43,0.00,,---,0.00,VWS V14.01,2013-02-02 14:30:00,
2013-02-02 09:35:00,25.0,5.1,30.47,ESE,112,0.0,0.0,42,0.00,,---,0.00,VWS V14.01,2013-02-02 14:35:00,
2013-02-02 09:40:00,25.7,5.8,30.47,ENE,68,0.0,0.0,42,0.00,,---,0.00,VWS V14.01,2013-02-02 14:40:00,
2013-02-02 09:45:00,26.6,6.6,30.47,ESE,112,0.0,0.0,42,0.00,,---,0.00,VWS V14.01,2013-02-02 14:45:00,
2013-02-02 09:50:00,27.0,6.4,30.47,NNW,338,2.9,2.9,41,0.00,,---,0.00,VWS V14.01,2013-02-02 14:50:00,
2013-02-02 09:55:00,27.7,7.1,30.44,ENE,68,0.0,0.0,41,0.00,,---,0.00,VWS V14.01,2013-02-02 14:55:00,
2013-02-02 10:00:00,28.0,7.4,30.44,ESE,112,0.0,0.9,41,0.00,,---,0.00,VWS V14.01,2013-02-02 15:00:00,
2013-02-02 10:05:00,28.6,7.9,30.44,ESE,112,2.0,2.0,41,0.00,,---,0.00,VWS V14.01,2013-02-02 15:05:00,
2013-02-02 10:10:00,28.8,7.5,30.47,ESE,112,1.6,1.6,40,0.00,,---,0.00,VWS V14.01,2013-02-02 15:10:00,
2013-02-02 10:15:00,28.6,6.8,30.47,NW,315,0.0,2.0,39,0.00,,---,0.00,VWS V14.01,2013-02-02 15:15:00,
2013-02-02 10:20:00,27.9,5.6,30.47,SSE,158,0.0,2.2,38,0.00,,---,0.00,VWS V14.01,2013-02-02 15:20:00,
2013-02-02 10:25:00,28.8,6.9,30.44,East,90,2.5,2.5,39,0.00,,---,0.00,VWS V14.01,2013-02-02 15:25:00,
2013-02-02 10:30:00,29.5,7.6,30.44,NW,315,0.0,1.1,39,0.00,,---,0.00,VWS V14.01,2013-02-02 15:30:00,
2013-02-02 10:35:00,30.4,8.4,30.44,ESE,112,1.3,1.3,39,0.00,,---,0.00,VWS V14.01,2013-02-02 15:35:00,
2013-02-02 10:40:00,30.2,7.1,30.44,NNW,338,2.0,3.4,37,0.00,,---,0.00,VWS V14.01,2013-02-02 15:40:00,
2013-02-02 10:45:00,30.7,7.6,30.44,NE,45,2.7,2.9,37,0.00,,---,0.00,VWS V14.01,2013-02-02 15:45:00,
2013-02-02 10:50:00,30.4,7.2,30.44,NNW,338,3.1,3.6,37,0.00,,---,0.00,VWS V14.01,2013-02-02 15:50:00,
2013-02-02 10:55:00,30.4,7.8,30.41,WNW,292,0.0,0.0,38,0.00,,---,0.00,VWS V14.01,2013-02-02 15:55:00,
2013-02-02 11:00:00,31.1,8.5,30.41,NW,315,2.0,2.5,38,0.00,,---,0.00,VWS V14.01,2013-02-02 16:00:00,
2013-02-02 11:05:00,31.3,8.6,30.41,NE,45,2.0,3.4,38,0.00,,---,0.00,VWS V14.01,2013-02-02 16:05:00,
2013-02-02 11:10:00,30.4,7.8,30.44,NE,45,1.1,2.9,38,0.00,,---,0.00,VWS V14.01,2013-02-02 16:10:00,
2013-02-02 11:15:00,32.0,9.3,30.44,ENE,68,3.1,3.1,38,0.00,,---,0.00,VWS V14.01,2013-02-02 16:15:00,
2013-02-02 11:20:00,32.2,9.4,30.44,NNE,22,0.0,0.0,38,0.00,,---,0.00,VWS V14.01,2013-02-02 16:20:00,
2013-02-02 11:25:00,32.9,10.1,30.44,NNE,22,3.8,3.8,38,0.00,,---,0.00,VWS V14.01,2013-02-02 16:25:00,
2013-02-02 11:30:00,32.9,9.5,30.44,ENE,68,0.0,1.6,37,0.00,,---,0.00,VWS V14.01,2013-02-02 16:30:00,
2013-02-02 11:35:00,32.5,9.8,30.44,ENE,68,4.3,4.3,38,0.00,,---,0.00,VWS V14.01,2013-02-02 16:35:00,
2013-02-02 11:40:00,32.2,8.9,30.44,NNE,22,1.3,1.3,37,0.00,,---,0.00,VWS V14.01,2013-02-02 16:40:00,
2013-02-02 11:45:00,31.8,9.1,30.44,NE,45,2.2,3.4,38,0.00,,---,0.00,VWS V14.01,2013-02-02 16:45:00,
2013-02-02 11:50:00,32.5,9.8,30.44,NNE,22,0.0,1.3,38,0.00,,---,0.00,VWS V14.01,2013-02-02 16:50:00,
2013-02-02 11:55:00,32.2,9.4,30.41,NNW,338,3.1,3.1,38,0.00,,---,0.00,VWS V14.01,2013-02-02 16:55:00,
2013-02-02 12:00:00,31.8,8.5,30.41,WSW,248,3.1,3.1,37,0.00,,---,0.00,VWS V14.01,2013-02-02 17:00:00,
2013-02-02 12:05:00,31.8,9.1,30.41,WNW,292,2.7,2.7,38,0.00,,---,0.00,VWS V14.01,2013-02-02 17:05:00,
2013-02-02 12:10:00,30.9,8.3,30.39,NE,45,1.1,1.1,38,0.00,,---,0.00,VWS V14.01,2013-02-02 17:10:00,
2013-02-02 12:15:00,31.8,9.7,30.39,NNW,338,0.0,0.0,39,0.00,,---,0.00,VWS V14.01,2013-02-02 17:15:00,
2013-02-02 12:20:00,32.5,9.8,30.39,ENE,68,2.7,2.7,38,0.00,,---,0.00,VWS V14.01,2013-02-02 17:20:00,
2013-02-02 12:25:00,31.8,9.7,30.39,NE,45,2.7,3.4,39,0.00,,---,0.00,VWS V14.01,2013-02-02 17:25:00,
2013-02-02 12:30:00,31.1,9.6,30.39,ENE,68,5.6,5.6,40,0.00,,---,0.00,VWS V14.01,2013-02-02 17:30:00,
2013-02-02 12:35:00,31.3,9.8,30.39,ESE,112,1.1,2.7,40,0.00,,---,0.00,VWS V14.01,2013-02-02 17:35:00,
2013-02-02 12:40:00,32.4,10.8,30.39,NE,45,0.9,0.9,40,0.00,,---,0.00,VWS V14.01,2013-02-02 17:40:00,
2013-02-02 12:45:00,32.9,11.2,30.39,SSE,158,1.1,1.1,40,0.00,,---,0.00,VWS V14.01,2013-02-02 17:45:00,
2013-02-02 12:50:00,33.1,11.4,30.39,ENE,68,1.3,2.5,40,0.00,,---,0.00,VWS V14.01,2013-02-02 17:50:00,
2013-02-02 12:55:00,33.3,11.6,30.36,East,90,0.0,1.1,40,0.00,,---,0.00,VWS V14.01,2013-02-02 17:55:00,
2013-02-02 13:00:00,33.3,11.6,30.36,NE,45,3.8,3.8,40,0.00,,---,0.00,VWS V14.01,2013-02-02 18:00:00,
2013-02-02 13:05:00,33.4,11.7,30.36,WNW,292,2.2,2.2,40,0.00,,---,0.00,VWS V14.01,2013-02-02 18:05:00,
2013-02-02 13:10:00,33.6,11.9,30.36,ENE,68,1.3,1.6,40,0.00,,---,0.00,VWS V14.01,2013-02-02 18:10:00,
2013-02-02 13:15:00,33.3,11.6,30.36,ENE,68,4.3,4.3,40,0.00,,---,0.00,VWS V14.01,2013-02-02 18:15:00,
2013-02-02 13:20:00,32.7,11.1,30.36,NNE,22,2.5,2.5,40,0.00,,---,0.00,VWS V14.01,2013-02-02 18:20:00,
2013-02-02 13:25:00,32.7,11.1,30.33,East,90,2.7,2.7,40,0.00,,---,0.00,VWS V14.01,2013-02-02 18:25:00,
2013-02-02 13:30:00,33.3,11.6,30.33,ENE,68,1.1,1.3,40,0.00,,---,0.00,VWS V14.01,2013-02-02 18:30:00,
2013-02-02 13:35:00,33.6,11.9,30.33,ESE,112,3.6,3.8,40,0.00,,---,0.00,VWS V14.01,2013-02-02 18:35:00,
2013-02-02 13:40:00,34.0,12.2,30.30,NE,45,2.0,3.1,40,0.00,,---,0.00,VWS V14.01,2013-02-02 18:40:00,
2013-02-02 13:45:00,33.6,11.9,30.30,NE,45,2.9,2.9,40,0.00,,---,0.00,VWS V14.01,2013-02-02 18:45:00,
2013-02-02 13:50:00,33.8,12.1,30.30,NE,45,3.6,3.6,40,0.00,,---,0.00,VWS V14.01,2013-02-02 18:50:00,
2013-02-02 13:55:00,33.6,12.4,30.33,East,90,2.9,2.9,41,0.00,,---,0.00,VWS V14.01,2013-02-02 18:55:00,
2013-02-02 14:00:00,33.6,12.4,30.33,ENE,68,0.0,0.0,41,0.00,,---,0.00,VWS V14.01,2013-02-02 19:00:00,
2013-02-02 14:05:00,33.8,12.1,30.33,NE,45,3.1,3.1,40,0.00,,---,0.00,VWS V14.01,2013-02-02 19:05:00,
2013-02-02 14:10:00,34.2,12.4,30.30,West,270,0.0,0.0,40,0.00,,---,0.00,VWS V14.01,2013-02-02 19:10:00,
2013-02-02 14:15:00,34.5,12.7,30.30,East,90,0.0,0.0,40,0.00,,---,0.00,VWS V14.01,2013-02-02 19:15:00,
2013-02-02 14:20:00,34.3,12.5,30.30,SW,225,1.1,2.0,40,0.00,,---,0.00,VWS V14.01,2013-02-02 19:20:00,
2013-02-02 14:25:00,34.5,12.7,30.33,NW,315,0.9,1.3,40,0.00,,---,0.00,VWS V14.01,2013-02-02 19:25:00,
2013-02-02 14:30:00,34.5,12.7,30.33,ESE,112,0.0,0.0,40,0.00,,---,0.00,VWS V14.01,2013-02-02 19:30:00,
2013-02-02 14:35:00,34.5,12.1,30.33,WNW,292,0.0,0.0,39,0.00,,---,0.00,VWS V14.01,2013-02-02 19:35:00,
2013-02-02 14:40:00,34.5,12.1,30.30,WSW,248,0.0,0.0,39,0.00,,---,0.00,VWS V14.01,2013-02-02 19:40:00,
2013-02-02 14:45:00,34.2,11.8,30.30,ESE,112,0.0,0.0,39,0.00,,---,0.00,VWS V14.01,2013-02-02 19:45:00,
2013-02-02 14:50:00,34.5,12.1,30.30,WSW,248,0.9,0.9,39,0.00,,---,0.00,VWS V14.01,2013-02-02 19:50:00,
2013-02-02 14:55:00,34.0,11.1,30.30,ESE,112,0.0,0.0,38,0.00,,---,0.00,VWS V14.01,2013-02-02 19:55:00,
2013-02-02 15:00:00,33.8,10.3,30.30,WSW,248,0.0,0.0,37,0.00,,---,0.00,VWS V14.01,2013-02-02 20:00:00,
2013-02-02 15:05:00,33.1,9.1,30.30,ESE,112,2.0,2.0,36,0.00,,---,0.00,VWS V14.01,2013-02-02 20:05:00,
2013-02-02 15:10:00,33.3,9.8,30.30,East,90,0.0,0.0,37,0.00,,---,0.00,VWS V14.01,2013-02-02 20:10:00,
2013-02-02 15:15:00,33.3,10.4,30.30,East,90,1.3,1.3,38,0.00,,---,0.00,VWS V14.01,2013-02-02 20:15:00,
2013-02-02 15:20:00,33.4,10.6,30.30,SW,225,1.3,1.3,38,0.00,,---,0.00,VWS V14.01,2013-02-02 20:20:00,
2013-02-02 15:25:00,33.3,10.4,30.30,ESE,112,0.0,0.0,38,0.00,,---,0.00,VWS V14.01,2013-02-02 20:25:00,
2013-02-02 15:30:00,32.7,9.9,30.30,ESE,112,1.1,1.3,38,0.00,,---,0.00,VWS V14.01,2013-02-02 20:30:00,
2013-02-02 15:35:00,32.5,9.8,30.30,East,90,0.0,0.0,38,0.00,,---,0.00,VWS V14.01,2013-02-02 20:35:00,
2013-02-02 15:40:00,32.4,10.2,30.27,ESE,112,0.0,0.0,39,0.00,,---,0.00,VWS V14.01,2013-02-02 20:40:00,
2013-02-02 15:45:00,32.2,10.0,30.27,ESE,112,0.0,0.0,39,0.00,,---,0.00,VWS V14.01,2013-02-02 20:45:00,
2013-02-02 15:50:00,32.2,10.0,30.27,ENE,68,0.0,0.0,39,0.00,,---,0.00,VWS V14.01,2013-02-02 20:50:00,
2013-02-02 15:55:00,32.0,9.9,30.27,East,90,0.0,0.0,39,0.00,,---,0.00,VWS V14.01,2013-02-02 20:55:00,
2013-02-02 16:00:00,32.5,10.4,30.27,ENE,68,0.0,0.0,39,0.00,,---,0.00,VWS V14.01,2013-02-02 21:00:00,
2013-02-02 16:05:00,32.7,10.5,30.27,ENE,68,0.0,0.0,39,0.00,,---,0.00,VWS V14.01,2013-02-02 21:05:00,
2013-02-02 16:10:00,32.4,10.2,30.27,ENE,68,1.6,1.6,39,0.00,,---,0.00,VWS V14.01,2013-02-02 21:10:00,
2013-02-02 16:15:00,32.0,9.9,30.27,WSW,248,0.0,0.0,39,0.00,,---,0.00,VWS V14.01,2013-02-02 21:15:00,
2013-02-02 16:20:00,31.8,9.7,30.27,NE,45,0.0,2.2,39,0.00,,---,0.00,VWS V14.01,2013-02-02 21:20:00,
2013-02-02 16:25:00,32.0,9.9,30.27,NE,45,1.1,1.1,39,0.00,,---,0.00,VWS V14.01,2013-02-02 21:25:00,
2013-02-02 16:30:00,31.8,9.7,30.27,SE,135,2.2,2.2,39,0.00,,---,0.00,VWS V14.01,2013-02-02 21:30:00,
2013-02-02 16:35:00,31.6,9.5,30.27,SSE,158,2.2,2.2,39,0.00,,---,0.00,VWS V14.01,2013-02-02 21:35:00,
2013-02-02 16:40:00,31.5,9.4,30.24,ESE,112,0.0,0.0,39,0.00,,---,0.00,VWS V14.01,2013-02-02 21:40:00,
2013-02-02 16:45:00,31.3,9.2,30.24,ESE,112,0.0,0.0,39,0.00,,---,0.00,VWS V14.01,2013-02-02 21:45:00,
2013-02-02 16:50:00,31.1,9.1,30.24,East,90,0.0,0.0,39,0.00,,---,0.00,VWS V14.01,2013-02-02 21:50:00,
2013-02-02 16:55:00,31.1,9.6,30.27,East,90,0.0,0.0,40,0.00,,---,0.00,VWS V14.01,2013-02-02 21:55:00,
2013-02-02 17:00:00,31.1,9.6,30.27,East,90,0.0,0.0,40,0.00,,---,0.00,VWS V14.01,2013-02-02 22:00:00,
2013-02-02 17:05:00,30.9,9.4,30.27,SSE,158,0.0,0.0,40,0.00,,---,0.00,VWS V14.01,2013-02-02 22:05:00,
2013-02-02 17:10:00,30.7,9.3,30.27,WNW,292,0.0,0.0,40,0.00,,---,0.00,VWS V14.01,2013-02-02 22:10:00,
2013-02-02 17:15:00,30.7,9.3,30.27,SE,135,0.0,0.0,40,0.00,,---,0.00,VWS V14.01,2013-02-02 22:15:00,
2013-02-02 17:20:00,30.7,9.3,30.27,East,90,0.0,0.0,40,0.00,,---,0.00,VWS V14.01,2013-02-02 22:20:00,
2013-02-02 17:25:00,30.6,9.1,30.27,WSW,248,0.0,0.0,40,0.00,,---,0.00,VWS V14.01,2013-02-02 22:25:00,
2013-02-02 17:30:00,30.4,9.0,30.27,ENE,68,0.0,0.0,40,0.00,,---,0.00,VWS V14.01,2013-02-02 22:30:00,
2013-02-02 17:35:00,30.4,9.0,30.27,East,90,0.0,0.0,40,0.00,,---,0.00,VWS V14.01,2013-02-02 22:35:00,
2013-02-02 17:40:00,30.2,9.4,30.21,WNW,292,1.3,1.3,41,0.00,,---,0.00,VWS V14.01,2013-02-02 22:40:00,
2013-02-02 17:45:00,30.2,9.4,30.21,ESE,112,0.0,0.0,41,0.00,,---,0.00,VWS V14.01,2013-02-02 22:45:00,
2013-02-02 17:50:00,30.2,9.4,30.21,ESE,112,0.0,0.0,41,0.00,,---,0.00,VWS V14.01,2013-02-02 22:50:00,
2013-02-02 17:55:00,30.2,9.4,30.24,ESE,112,2.7,2.7,41,0.00,,---,0.00,VWS V14.01,2013-02-02 22:55:00,
2013-02-02 18:00:00,30.2,9.4,30.24,SSE,158,0.0,0.0,41,0.00,,---,0.00,VWS V14.01,2013-02-02 23:00:00,
2013-02-02 18:05:00,30.2,9.4,30.24,SSE,158,0.0,0.0,41,0.00,,---,0.00,VWS V14.01,2013-02-02 23:05:00,
2013-02-02 18:10:00,30.2,9.4,30.24,ESE,112,1.1,1.1,41,0.00,,---,0.00,VWS V14.01,2013-02-02 23:10:00,
2013-02-02 18:15:00,30.0,9.7,30.24,East,90,0.0,0.0,42,0.00,,---,0.00,VWS V14.01,2013-02-02 23:15:00,
2013-02-02 18:20:00,30.0,9.7,30.24,West,270,2.5,2.5,42,0.00,,---,0.00,VWS V14.01,2013-02-02 23:20:00,
2013-02-02 18:25:00,29.7,9.9,30.24,ENE,68,0.0,0.0,43,0.00,,---,0.00,VWS V14.01,2013-02-02 23:25:00,
2013-02-02 18:30:00,29.3,10.1,30.24,WSW,248,0.0,0.0,44,0.00,,---,0.00,VWS V14.01,2013-02-02 23:30:00,
2013-02-02 18:35:00,29.1,10.4,30.24,ESE,112,0.0,0.0,45,0.00,,---,0.00,VWS V14.01,2013-02-02 23:35:00,
2013-02-02 18:40:00,28.8,10.6,30.24,ESE,112,0.0,0.0,46,0.00,,---,0.00,VWS V14.01,2013-02-02 23:40:00,
2013-02-02 18:45:00,28.6,10.9,30.24,East,90,0.0,0.0,47,0.00,,---,0.00,VWS V14.01,2013-02-02 23:45:00,
2013-02-02 18:50:00,28.4,11.7,30.24,ENE,68,0.0,0.0,49,0.00,,---,0.00,VWS V14.01,2013-02-02 23:50:00,
2013-02-02 18:55:00,28.2,12.4,30.24,South,180,0.0,0.0,51,0.00,,---,0.00,VWS V14.01,2013-02-02 23:55:00,
2013-02-02 19:00:00,28.0,12.7,30.24,South,180,0.0,0.0,52,0.00,,---,0.00,VWS V14.01,2013-02-03 00:00:00,
2013-02-02 19:05:00,28.0,13.1,30.24,South,180,0.0,0.0,53,0.00,,---,0.00,VWS V14.01,2013-02-03 00:05:00,
2013-02-02 19:10:00,27.9,13.4,30.27,ESE,112,0.0,0.0,54,0.00,,---,0.00,VWS V14.01,2013-02-03 00:10:00,
2013-02-02 19:15:00,27.9,13.4,30.27,ESE,112,0.0,0.0,54,0.00,,---,0.00,VWS V14.01,2013-02-03 00:15:00,
2013-02-02 19:20:00,27.9,13.8,30.27,ESE,112,0.0,0.0,55,0.00,,---,0.00,VWS V14.01,2013-02-03 00:20:00,
2013-02-02 19:25:00,27.9,13.8,30.24,ESE,112,0.0,0.0,55,0.00,,---,0.00,VWS V14.01,2013-02-03 00:25:00,
2013-02-02 19:30:00,27.9,14.6,30.24,ESE,112,0.0,0.0,57,0.00,,---,0.00,VWS V14.01,2013-02-03 00:30:00,
2013-02-02 19:35:00,27.9,14.2,30.24,ESE,112,0.0,0.0,56,0.00,,---,0.00,VWS V14.01,2013-02-03 00:35:00,
2013-02-02 19:40:00,27.7,14.4,30.27,ESE,112,0.0,0.0,57,0.00,,---,0.00,VWS V14.01,2013-02-03 00:40:00,
2013-02-02 19:45:00,27.7,14.9,30.27,ESE,112,0.0,0.0,58,0.00,,---,0.00,VWS V14.01,2013-02-03 00:45:00,
2013-02-02 19:50:00,27.7,14.9,30.27,ESE,112,0.0,0.0,58,0.00,,---,0.00,VWS V14.01,2013-02-03 00:50:00,
2013-02-02 19:55:00,27.7,14.9,30.27,ESE,112,0.0,0.0,58,0.00,,---,0.00,VWS V14.01,2013-02-03 00:55:00,
2013-02-02 20:00:00,27.7,14.9,30.27,ESE,112,0.0,0.0,58,0.00,,---,0.00,VWS V14.01,2013-02-03 01:00:00,
2013-02-02 20:05:00,27.7,15.2,30.27,ESE,112,0.0,0.0,59,0.00,,---,0.00,VWS V14.01,2013-02-03 01:05:00,
2013-02-02 20:10:00,27.7,15.2,30.24,ESE,112,0.0,0.0,59,0.00,,---,0.00,VWS V14.01,2013-02-03 01:10:00,
2013-02-02 20:15:00,27.9,15.8,30.24,ESE,112,0.0,0.0,60,0.00,,---,0.00,VWS V14.01,2013-02-03 01:15:00,
2013-02-02 20:20:00,27.9,15.8,30.24,ESE,112,0.0,0.0,60,0.00,,---,0.00,VWS V14.01,2013-02-03 01:20:00,
2013-02-02 20:25:00,27.9,16.2,30.24,ESE,112,0.0,0.0,61,0.00,,---,0.00,VWS V14.01,2013-02-03 01:25:00,
2013-02-02 20:30:00,27.9,16.5,30.24,ESE,112,0.0,0.0,62,0.00,,---,0.00,VWS V14.01,2013-02-03 01:30:00,
2013-02-02 20:35:00,27.9,16.5,30.24,ESE,112,0.0,0.0,62,0.00,,---,0.00,VWS V14.01,2013-02-03 01:35:00,
2013-02-02 20:40:00,27.9,16.5,30.21,ESE,112,0.0,0.0,62,0.00,,---,0.00,VWS V14.01,2013-02-03 01:40:00,
2013-02-02 20:45:00,27.9,16.9,30.21,ESE,112,0.0,0.0,63,0.00,,---,0.00,VWS V14.01,2013-02-03 01:45:00,
2013-02-02 20:50:00,27.9,16.9,30.21,ESE,112,0.0,0.0,63,0.00,,---,0.00,VWS V14.01,2013-02-03 01:50:00,
2013-02-02 20:55:00,27.9,16.9,30.21,ESE,112,0.0,0.0,63,0.00,,---,0.00,VWS V14.01,2013-02-03 01:55:00,
2013-02-02 21:00:00,27.9,17.3,30.21,ESE,112,0.0,0.0,64,0.00,,---,0.00,VWS V14.01,2013-02-03 02:00:00,
2013-02-02 21:05:00,27.9,17.3,30.21,ESE,112,0.0,0.0,64,0.00,,---,0.00,VWS V14.01,2013-02-03 02:05:00,
2013-02-02 21:10:00,27.9,17.3,30.18,ESE,112,0.0,0.0,64,0.00,,---,0.00,VWS V14.01,2013-02-03 02:10:00,
2013-02-02 21:15:00,27.9,17.6,30.18,ESE,112,0.0,0.0,65,0.00,,---,0.00,VWS V14.01,2013-02-03 02:15:00,
2013-02-02 21:20:00,27.9,17.6,30.18,ESE,112,0.0,0.0,65,0.00,,---,0.00,VWS V14.01,2013-02-03 02:20:00,
2013-02-02 21:25:00,27.9,18.0,30.21,ESE,112,0.0,0.0,66,0.00,,---,0.00,VWS V14.01,2013-02-03 02:25:00,
2013-02-02 21:30:00,28.0,18.2,30.21,ESE,112,0.0,0.0,66,0.00,,---,0.00,VWS V14.01,2013-02-03 02:30:00,
2013-02-02 21:35:00,28.0,18.5,30.21,ESE,112,0.0,0.0,67,0.00,,---,0.00,VWS V14.01,2013-02-03 02:35:00,
2013-02-02 21:40:00,28.0,18.5,30.21,ESE,112,0.0,0.0,67,0.00,,---,0.00,VWS V14.01,2013-02-03 02:40:00,
2013-02-02 21:45:00,28.0,18.5,30.21,ESE,112,0.0,0.0,67,0.00,,---,0.00,VWS V14.01,2013-02-03 02:45:00,
2013-02-02 21:50:00,28.0,18.5,30.21,ESE,112,0.0,0.0,67,0.00,,---,0.00,VWS V14.01,2013-02-03 02:50:00,
2013-02-02 21:55:00,28.0,18.9,30.21,ESE,112,0.0,0.0,68,0.00,,---,0.00,VWS V14.01,2013-02-03 02:55:00,
2013-02-02 22:00:00,28.0,18.9,30.21,SE,135,0.0,0.0,68,0.00,,---,0.00,VWS V14.01,2013-02-03 03:00:00,
2013-02-02 22:05:00,28.0,18.9,30.21,SE,135,0.0,0.0,68,0.00,,---,0.00,VWS V14.01,2013-02-03 03:05:00,
2013-02-02 22:10:00,28.2,19.0,30.21,SE,135,0.0,0.0,68,0.00,,---,0.00,VWS V14.01,2013-02-03 03:10:00,
2013-02-02 22:15:00,28.4,19.2,30.21,SE,135,0.0,0.0,68,0.00,,---,0.00,VWS V14.01,2013-02-03 03:15:00,
2013-02-02 22:20:00,28.6,19.4,30.21,SE,135,0.0,0.0,68,0.00,,---,0.00,VWS V14.01,2013-02-03 03:20:00,
2013-02-02 22:25:00,28.6,19.7,30.18,SE,135,0.0,0.0,69,0.00,,---,0.00,VWS V14.01,2013-02-03 03:25:00,
2013-02-02 22:30:00,28.6,19.7,30.18,East,90,0.0,0.0,69,0.00,,---,0.00,VWS V14.01,2013-02-03 03:30:00,
2013-02-02 22:35:00,28.8,20.2,30.18,West,270,0.0,0.0,70,0.00,,---,0.00,VWS V14.01,2013-02-03 03:35:00,
2013-02-02 22:40:00,28.9,20.4,30.18,SW,225,0.0,0.0,70,0.00,,---,0.00,VWS V14.01,2013-02-03 03:40:00,
2013-02-02 22:45:00,28.9,20.4,30.18,SW,225,0.0,0.0,70,0.00,,---,0.00,VWS V14.01,2013-02-03 03:45:00,
2013-02-02 22:50:00,28.9,20.7,30.18,SW,225,0.0,0.0,71,0.00,,---,0.00,VWS V14.01,2013-02-03 03:50:00,
2013-02-02 22:55:00,28.9,20.7,30.18,SW,225,0.0,0.0,71,0.00,,---,0.00,VWS V14.01,2013-02-03 03:55:00,
2013-02-02 23:00:00,28.9,20.4,30.18,SW,225,0.0,0.0,70,0.00,,---,0.00,VWS V14.01,2013-02-03 04:00:00,
2013-02-02 23:05:00,28.9,20.7,30.18,SW,225,0.0,0.0,71,0.00,,---,0.00,VWS V14.01,2013-02-03 04:05:00,
2013-02-02 23:10:00,28.9,20.7,30.18,SW,225,0.0,0.0,71,0.00,,---,0.00,VWS V14.01,2013-02-03 04:10:00,
2013-02-02 23:15:00,28.8,20.6,30.18,SW,225,0.0,0.0,71,0.00,,---,0.00,VWS V14.01,2013-02-03 04:15:00,
2013-02-02 23:20:00,28.8,20.6,30.18,SW,225,0.0,0.0,71,0.00,,---,0.00,VWS V14.01,2013-02-03 04:20:00,
2013-02-02 23:25:00,28.6,20.4,30.18,SW,225,0.0,0.0,71,0.00,,---,0.00,VWS V14.01,2013-02-03 04:25:00,
2013-02-02 23:30:00,28.6,20.4,30.18,SW,225,0.0,0.0,71,0.00,,---,0.00,VWS V14.01,2013-02-03 04:30:00,
2013-02-02 23:35:00,28.6,20.7,30.18,SW,225,0.0,0.0,72,0.00,,---,0.00,VWS V14.01,2013-02-03 04:35:00,
2013-02-02 23:40:00,28.6,20.4,30.18,SW,225,0.0,0.0,71,0.00,,---,0.00,VWS V14.01,2013-02-03 04:40:00,
2013-02-02 23:45:00,28.6,20.7,30.18,SW,225,0.0,0.0,72,0.00,,---,0.00,VWS V14.01,2013-02-03 04:45:00,
2013-02-02 23:50:00,28.6,20.7,30.18,SW,225,0.0,0.0,72,0.00,,---,0.00,VWS V14.01,2013-02-03 04:50:00,
2013-02-02 23:55:00,28.6,20.7,30.15,SW,225,0.0,0.0,72,0.00,,---,0.00,VWS V14.01,2013-02-03 04:55:00,